sensor_id;sensor_type;location;lat;lon;timestamp;temperature;humidity
24668;DHT22;12793;48.014;0.232;2022-09-13T00:00:38;25.90;43.40
24668;DHT22;12793;48.014;0.232;2022-09-13T00:03:04;26.00;43.40
24668;DHT22;12793;48.014;0.232;2022-09-13T00:05:30;25.90;43.40
24668;DHT22;12793;48.014;0.232;2022-09-13T00:07:56;25.90;43.40
24668;DHT22;12793;48.014;0.232;2022-09-13T00:10:23;25.90;43.40
24668;DHT22;12793;48.014;0.232;2022-09-13T00:12:52;25.90;43.50
24668;DHT22;12793;48.014;0.232;2022-09-13T00:15:18;25.90;43.60
24668;DHT22;12793;48.014;0.232;2022-09-13T00:17:44;25.80;43.60
24668;DHT22;12793;48.014;0.232;2022-09-13T00:20:10;25.80;43.70
24668;DHT22;12793;48.014;0.232;2022-09-13T00:22:36;25.80;43.80
24668;DHT22;12793;48.014;0.232;2022-09-13T00:25:03;25.80;43.80
24668;DHT22;12793;48.014;0.232;2022-09-13T00:27:30;25.80;43.80
24668;DHT22;12793;48.014;0.232;2022-09-13T00:29:56;25.80;43.80
24668;DHT22;12793;48.014;0.232;2022-09-13T00:32:22;25.80;43.90
24668;DHT22;12793;48.014;0.232;2022-09-13T00:34:47;25.80;43.80
24668;DHT22;12793;48.014;0.232;2022-09-13T00:37:13;25.80;43.80
24668;DHT22;12793;48.014;0.232;2022-09-13T00:39:39;25.80;43.80
24668;DHT22;12793;48.014;0.232;2022-09-13T00:42:04;25.80;44.30
24668;DHT22;12793;48.014;0.232;2022-09-13T00:47:33;25.80;43.90
24668;DHT22;12793;48.014;0.232;2022-09-13T00:52:36;25.80;44.00
24668;DHT22;12793;48.014;0.232;2022-09-13T00:55:15;25.80;43.90
24668;DHT22;12793;48.014;0.232;2022-09-13T00:57:43;25.80;44.00
24668;DHT22;12793;48.014;0.232;2022-09-13T01:00:12;25.80;44.00
24668;DHT22;12793;48.014;0.232;2022-09-13T01:02:52;25.80;43.90
24668;DHT22;12793;48.014;0.232;2022-09-13T01:05:21;25.90;44.10
24668;DHT22;12793;48.014;0.232;2022-09-13T01:07:48;25.90;44.30
24668;DHT22;12793;48.014;0.232;2022-09-13T01:10:14;25.80;44.40
24668;DHT22;12793;48.014;0.232;2022-09-13T01:15:08;25.80;44.70
24668;DHT22;12793;48.014;0.232;2022-09-13T01:17:35;25.80;45.00
24668;DHT22;12793;48.014;0.232;2022-09-13T01:20:04;25.70;45.00
24668;DHT22;12793;48.014;0.232;2022-09-13T01:28:32;25.50;45.90
24668;DHT22;12793;48.014;0.232;2022-09-13T01:47:59;25.10;46.30
24668;DHT22;12793;48.014;0.232;2022-09-13T01:51:05;25.00;46.40
24668;DHT22;12793;48.014;0.232;2022-09-13T01:56:22;24.80;46.80
24668;DHT22;12793;48.014;0.232;2022-09-13T01:59:15;24.80;47.30
24668;DHT22;12793;48.014;0.232;2022-09-13T02:02:02;24.80;47.70
24668;DHT22;12793;48.014;0.232;2022-09-13T02:04:36;24.70;47.60
24668;DHT22;12793;48.014;0.232;2022-09-13T02:07:08;24.70;47.90
24668;DHT22;12793;48.014;0.232;2022-09-13T02:09:41;24.70;48.90
24668;DHT22;12793;48.014;0.232;2022-09-13T02:12:13;24.60;50.00
24668;DHT22;12793;48.014;0.232;2022-09-13T02:14:42;24.50;50.40
24668;DHT22;12793;48.014;0.232;2022-09-13T02:17:14;24.40;51.10
24668;DHT22;12793;48.014;0.232;2022-09-13T02:19:52;24.30;51.50
24668;DHT22;12793;48.014;0.232;2022-09-13T02:22:25;24.20;51.80
24668;DHT22;12793;48.014;0.232;2022-09-13T02:24:54;24.10;52.30
24668;DHT22;12793;48.014;0.232;2022-09-13T02:27:25;24.00;53.30
24668;DHT22;12793;48.014;0.232;2022-09-13T02:29:56;24.00;53.90
24668;DHT22;12793;48.014;0.232;2022-09-13T02:35:02;23.80;54.50
24668;DHT22;12793;48.014;0.232;2022-09-13T02:37:31;23.80;55.00
24668;DHT22;12793;48.014;0.232;2022-09-13T02:40:03;23.70;55.10
24668;DHT22;12793;48.014;0.232;2022-09-13T02:42:39;23.70;55.20
24668;DHT22;12793;48.014;0.232;2022-09-13T02:45:09;23.50;55.60
24668;DHT22;12793;48.014;0.232;2022-09-13T02:48:03;23.40;55.70
24668;DHT22;12793;48.014;0.232;2022-09-13T02:50:49;23.40;56.30
24668;DHT22;12793;48.014;0.232;2022-09-13T02:53:42;23.40;56.30
24668;DHT22;12793;48.014;0.232;2022-09-13T02:59:13;23.30;56.40
24668;DHT22;12793;48.014;0.232;2022-09-13T03:01:41;23.30;56.60
24668;DHT22;12793;48.014;0.232;2022-09-13T03:04:09;23.20;56.90
24668;DHT22;12793;48.014;0.232;2022-09-13T03:06:34;23.10;57.30
24668;DHT22;12793;48.014;0.232;2022-09-13T03:09:02;23.20;57.50
24668;DHT22;12793;48.014;0.232;2022-09-13T03:19:52;23.20;57.60
24668;DHT22;12793;48.014;0.232;2022-09-13T03:30:09;22.90;58.50
24668;DHT22;12793;48.014;0.232;2022-09-13T03:46:08;22.60;59.60
24668;DHT22;12793;48.014;0.232;2022-09-13T03:48:36;22.60;59.50
24668;DHT22;12793;48.014;0.232;2022-09-13T03:51:07;22.60;59.70
24668;DHT22;12793;48.014;0.232;2022-09-13T03:53:38;22.60;59.60
24668;DHT22;12793;48.014;0.232;2022-09-13T03:56:17;22.50;59.60
24668;DHT22;12793;48.014;0.232;2022-09-13T03:58:43;22.50;59.60
24668;DHT22;12793;48.014;0.232;2022-09-13T04:01:08;22.50;59.40
24668;DHT22;12793;48.014;0.232;2022-09-13T04:03:37;22.50;59.50
24668;DHT22;12793;48.014;0.232;2022-09-13T04:06:04;22.50;59.60
24668;DHT22;12793;48.014;0.232;2022-09-13T04:08:31;22.50;59.70
24668;DHT22;12793;48.014;0.232;2022-09-13T04:10:57;22.50;59.50
24668;DHT22;12793;48.014;0.232;2022-09-13T04:13:23;22.60;59.50
24668;DHT22;12793;48.014;0.232;2022-09-13T04:15:49;22.60;59.70
24668;DHT22;12793;48.014;0.232;2022-09-13T04:18:16;22.60;59.60
24668;DHT22;12793;48.014;0.232;2022-09-13T04:20:42;22.60;59.70
24668;DHT22;12793;48.014;0.232;2022-09-13T04:23:08;22.60;59.70
24668;DHT22;12793;48.014;0.232;2022-09-13T04:25:36;22.60;59.80
24668;DHT22;12793;48.014;0.232;2022-09-13T04:28:03;22.60;59.80
24668;DHT22;12793;48.014;0.232;2022-09-13T04:30:29;22.60;59.90
24668;DHT22;12793;48.014;0.232;2022-09-13T04:32:55;22.60;60.20
24668;DHT22;12793;48.014;0.232;2022-09-13T04:35:21;22.60;60.20
24668;DHT22;12793;48.014;0.232;2022-09-13T04:37:46;22.60;60.10
24668;DHT22;12793;48.014;0.232;2022-09-13T04:40:12;22.60;60.30
24668;DHT22;12793;48.014;0.232;2022-09-13T04:42:39;22.60;60.50
24668;DHT22;12793;48.014;0.232;2022-09-13T04:45:05;22.60;60.70
24668;DHT22;12793;48.014;0.232;2022-09-13T04:47:31;22.60;61.40
24668;DHT22;12793;48.014;0.232;2022-09-13T04:49:57;22.60;61.80
24668;DHT22;12793;48.014;0.232;2022-09-13T04:52:22;22.70;62.30
24668;DHT22;12793;48.014;0.232;2022-09-13T04:54:48;22.60;62.20
24668;DHT22;12793;48.014;0.232;2022-09-13T04:57:14;22.60;62.60
24668;DHT22;12793;48.014;0.232;2022-09-13T04:59:41;22.60;62.70
24668;DHT22;12793;48.014;0.232;2022-09-13T05:02:08;22.60;63.00
24668;DHT22;12793;48.014;0.232;2022-09-13T05:04:34;22.60;62.70
24668;DHT22;12793;48.014;0.232;2022-09-13T05:06:59;22.60;62.70
24668;DHT22;12793;48.014;0.232;2022-09-13T05:09:26;22.60;62.50
24668;DHT22;12793;48.014;0.232;2022-09-13T05:11:52;22.60;62.50
24668;DHT22;12793;48.014;0.232;2022-09-13T05:14:18;22.60;62.50
24668;DHT22;12793;48.014;0.232;2022-09-13T05:16:43;22.70;62.50
24668;DHT22;12793;48.014;0.232;2022-09-13T05:19:11;22.70;62.40
24668;DHT22;12793;48.014;0.232;2022-09-13T05:21:37;22.70;62.40
24668;DHT22;12793;48.014;0.232;2022-09-13T05:24:03;22.70;62.30
24668;DHT22;12793;48.014;0.232;2022-09-13T05:26:30;22.70;62.50
24668;DHT22;12793;48.014;0.232;2022-09-13T05:28:57;22.80;62.50
24668;DHT22;12793;48.014;0.232;2022-09-13T05:31:28;22.80;62.50
24668;DHT22;12793;48.014;0.232;2022-09-13T05:34:01;22.80;62.30
24668;DHT22;12793;48.014;0.232;2022-09-13T05:36:27;22.80;62.50
24668;DHT22;12793;48.014;0.232;2022-09-13T05:38:53;22.80;62.50
24668;DHT22;12793;48.014;0.232;2022-09-13T05:41:19;22.80;62.40
24668;DHT22;12793;48.014;0.232;2022-09-13T05:43:45;22.80;62.40
24668;DHT22;12793;48.014;0.232;2022-09-13T05:46:16;22.80;62.50
24668;DHT22;12793;48.014;0.232;2022-09-13T05:48:43;22.80;62.80
24668;DHT22;12793;48.014;0.232;2022-09-13T05:51:14;22.80;63.00
24668;DHT22;12793;48.014;0.232;2022-09-13T05:53:41;22.70;63.10
24668;DHT22;12793;48.014;0.232;2022-09-13T05:56:10;22.70;63.30
24668;DHT22;12793;48.014;0.232;2022-09-13T05:58:44;22.70;63.50
24668;DHT22;12793;48.014;0.232;2022-09-13T06:01:11;22.60;63.30
24668;DHT22;12793;48.014;0.232;2022-09-13T06:03:37;22.70;63.20
24668;DHT22;12793;48.014;0.232;2022-09-13T06:06:04;22.70;63.00
24668;DHT22;12793;48.014;0.232;2022-09-13T06:08:31;22.70;63.10
24668;DHT22;12793;48.014;0.232;2022-09-13T06:10:59;22.70;63.20
24668;DHT22;12793;48.014;0.232;2022-09-13T06:13:26;22.70;63.20
24668;DHT22;12793;48.014;0.232;2022-09-13T06:15:54;22.80;63.20
24668;DHT22;12793;48.014;0.232;2022-09-13T06:18:20;22.80;63.00
24668;DHT22;12793;48.014;0.232;2022-09-13T06:20:46;22.80;62.90
24668;DHT22;12793;48.014;0.232;2022-09-13T06:23:13;22.80;62.80
24668;DHT22;12793;48.014;0.232;2022-09-13T06:25:39;22.80;62.90
24668;DHT22;12793;48.014;0.232;2022-09-13T06:28:05;22.80;62.90
24668;DHT22;12793;48.014;0.232;2022-09-13T06:30:30;22.80;62.90
24668;DHT22;12793;48.014;0.232;2022-09-13T06:32:56;22.90;63.10
24668;DHT22;12793;48.014;0.232;2022-09-13T06:35:22;22.90;63.00
24668;DHT22;12793;48.014;0.232;2022-09-13T06:37:48;22.90;62.80
24668;DHT22;12793;48.014;0.232;2022-09-13T06:40:14;22.90;62.70
24668;DHT22;12793;48.014;0.232;2022-09-13T06:42:41;23.00;62.90
24668;DHT22;12793;48.014;0.232;2022-09-13T06:45:07;23.00;62.60
24668;DHT22;12793;48.014;0.232;2022-09-13T06:47:34;23.00;62.60
24668;DHT22;12793;48.014;0.232;2022-09-13T06:50:00;23.00;62.70
24668;DHT22;12793;48.014;0.232;2022-09-13T06:52:26;23.00;62.70
24668;DHT22;12793;48.014;0.232;2022-09-13T06:54:53;23.00;62.60
24668;DHT22;12793;48.014;0.232;2022-09-13T06:57:18;23.00;62.60
24668;DHT22;12793;48.014;0.232;2022-09-13T06:59:44;23.00;62.50
24668;DHT22;12793;48.014;0.232;2022-09-13T07:02:10;23.10;62.60
24668;DHT22;12793;48.014;0.232;2022-09-13T07:04:39;23.10;62.50
24668;DHT22;12793;48.014;0.232;2022-09-13T07:07:05;23.10;62.50
24668;DHT22;12793;48.014;0.232;2022-09-13T07:09:30;23.10;62.50
24668;DHT22;12793;48.014;0.232;2022-09-13T07:11:58;23.10;62.50
24668;DHT22;12793;48.014;0.232;2022-09-13T07:14:26;23.10;62.60
24668;DHT22;12793;48.014;0.232;2022-09-13T07:16:53;23.10;62.60
24668;DHT22;12793;48.014;0.232;2022-09-13T07:19:21;23.20;62.80
24668;DHT22;12793;48.014;0.232;2022-09-13T07:21:48;23.10;62.70
24668;DHT22;12793;48.014;0.232;2022-09-13T07:24:15;23.20;63.00
24668;DHT22;12793;48.014;0.232;2022-09-13T07:26:41;23.20;63.00
24668;DHT22;12793;48.014;0.232;2022-09-13T07:29:10;23.30;63.10
24668;DHT22;12793;48.014;0.232;2022-09-13T07:31:40;23.30;63.10
24668;DHT22;12793;48.014;0.232;2022-09-13T07:34:12;23.30;63.10
24668;DHT22;12793;48.014;0.232;2022-09-13T07:36:40;23.40;62.80
24668;DHT22;12793;48.014;0.232;2022-09-13T07:39:06;23.40;62.80
24668;DHT22;12793;48.014;0.232;2022-09-13T07:41:33;23.40;62.80
24668;DHT22;12793;48.014;0.232;2022-09-13T07:44:01;23.50;62.70
24668;DHT22;12793;48.014;0.232;2022-09-13T07:46:28;23.50;62.60
24668;DHT22;12793;48.014;0.232;2022-09-13T07:48:58;23.50;62.60
24668;DHT22;12793;48.014;0.232;2022-09-13T07:51:28;23.60;62.50
24668;DHT22;12793;48.014;0.232;2022-09-13T07:53:56;23.60;62.40
24668;DHT22;12793;48.014;0.232;2022-09-13T07:56:30;23.70;62.40
24668;DHT22;12793;48.014;0.232;2022-09-13T07:58:59;23.70;62.50
24668;DHT22;12793;48.014;0.232;2022-09-13T08:01:35;23.80;62.30
24668;DHT22;12793;48.014;0.232;2022-09-13T08:04:07;23.80;62.30
24668;DHT22;12793;48.014;0.232;2022-09-13T08:06:35;23.80;62.20
24668;DHT22;12793;48.014;0.232;2022-09-13T08:09:02;23.90;62.10
24668;DHT22;12793;48.014;0.232;2022-09-13T08:11:30;23.90;62.00
24668;DHT22;12793;48.014;0.232;2022-09-13T08:13:56;24.00;62.00
24668;DHT22;12793;48.014;0.232;2022-09-13T08:16:23;24.10;61.80
24668;DHT22;12793;48.014;0.232;2022-09-13T08:18:52;24.20;61.80
24668;DHT22;12793;48.014;0.232;2022-09-13T08:21:18;24.20;62.00
24668;DHT22;12793;48.014;0.232;2022-09-13T08:23:44;24.30;61.60
24668;DHT22;12793;48.014;0.232;2022-09-13T08:26:10;24.40;61.50
24668;DHT22;12793;48.014;0.232;2022-09-13T08:28:38;24.60;61.30
24668;DHT22;12793;48.014;0.232;2022-09-13T08:31:09;24.70;61.00
24668;DHT22;12793;48.014;0.232;2022-09-13T08:33:35;24.90;60.80
24668;DHT22;12793;48.014;0.232;2022-09-13T08:36:02;25.00;60.50
24668;DHT22;12793;48.014;0.232;2022-09-13T08:38:29;25.20;60.80
24668;DHT22;12793;48.014;0.232;2022-09-13T08:41:03;25.20;59.70
24668;DHT22;12793;48.014;0.232;2022-09-13T08:46:33;25.50;59.50
24668;DHT22;12793;48.014;0.232;2022-09-13T08:49:06;25.60;59.30
24668;DHT22;12793;48.014;0.232;2022-09-13T08:51:41;25.80;59.10
24668;DHT22;12793;48.014;0.232;2022-09-13T08:54:11;25.90;58.80
24668;DHT22;12793;48.014;0.232;2022-09-13T08:57:00;25.90;58.60
24668;DHT22;12793;48.014;0.232;2022-09-13T09:05:14;26.20;57.20
24668;DHT22;12793;48.014;0.232;2022-09-13T09:10:43;26.40;56.70
24668;DHT22;12793;48.014;0.232;2022-09-13T09:15:57;26.40;56.20
24668;DHT22;12793;48.014;0.232;2022-09-13T09:18:35;26.50;56.00
24668;DHT22;12793;48.014;0.232;2022-09-13T09:21:06;26.60;55.90
24668;DHT22;12793;48.014;0.232;2022-09-13T09:23:40;26.60;55.40
24668;DHT22;12793;48.014;0.232;2022-09-13T09:28:46;26.80;55.10
24668;DHT22;12793;48.014;0.232;2022-09-13T09:38:57;27.30;54.40
24668;DHT22;12793;48.014;0.232;2022-09-13T09:41:31;27.50;54.10
24668;DHT22;12793;48.014;0.232;2022-09-13T09:46:40;27.80;53.80
24668;DHT22;12793;48.014;0.232;2022-09-13T09:49:31;27.90;53.50
24668;DHT22;12793;48.014;0.232;2022-09-13T09:52:18;28.10;53.50
24668;DHT22;12793;48.014;0.232;2022-09-13T09:54:48;28.30;53.30
24668;DHT22;12793;48.014;0.232;2022-09-13T09:57:15;28.50;52.90
24668;DHT22;12793;48.014;0.232;2022-09-13T09:59:43;28.60;52.40
24668;DHT22;12793;48.014;0.232;2022-09-13T10:02:20;28.70;52.40
24668;DHT22;12793;48.014;0.232;2022-09-13T10:04:57;28.90;52.10
24668;DHT22;12793;48.014;0.232;2022-09-13T10:07:32;29.10;51.70
24668;DHT22;12793;48.014;0.232;2022-09-13T10:10:04;29.20;51.50
24668;DHT22;12793;48.014;0.232;2022-09-13T10:12:33;29.50;51.30
24668;DHT22;12793;48.014;0.232;2022-09-13T10:15:26;29.80;50.60
24668;DHT22;12793;48.014;0.232;2022-09-13T10:18:02;30.00;50.00
24668;DHT22;12793;48.014;0.232;2022-09-13T10:20:28;30.20;49.70
24668;DHT22;12793;48.014;0.232;2022-09-13T10:23:17;30.30;49.20
24668;DHT22;12793;48.014;0.232;2022-09-13T10:25:54;30.40;49.30
24668;DHT22;12793;48.014;0.232;2022-09-13T10:28:21;30.40;48.90
24668;DHT22;12793;48.014;0.232;2022-09-13T10:35:51;30.60;48.60
24668;DHT22;12793;48.014;0.232;2022-09-13T10:38:50;30.60;48.30
24668;DHT22;12793;48.014;0.232;2022-09-13T10:41:23;30.40;48.10
24668;DHT22;12793;48.014;0.232;2022-09-13T10:44:01;30.30;48.30
24668;DHT22;12793;48.014;0.232;2022-09-13T10:46:32;30.20;48.60
24668;DHT22;12793;48.014;0.232;2022-09-13T10:49:00;30.30;48.70
24668;DHT22;12793;48.014;0.232;2022-09-13T10:54:19;30.50;48.40
24668;DHT22;12793;48.014;0.232;2022-09-13T10:56:47;30.50;48.40
24668;DHT22;12793;48.014;0.232;2022-09-13T11:20:44;30.30;48.10
24668;DHT22;12793;48.014;0.232;2022-09-13T11:32:26;30.40;48.20
24668;DHT22;12793;48.014;0.232;2022-09-13T11:47:21;30.90;47.40
24668;DHT22;12793;48.014;0.232;2022-09-13T11:50:00;30.90;47.40
24668;DHT22;12793;48.014;0.232;2022-09-13T11:55:14;31.20;47.70
24668;DHT22;12793;48.014;0.232;2022-09-13T11:57:51;31.60;47.80
24668;DHT22;12793;48.014;0.232;2022-09-13T12:00:21;31.90;47.30
24668;DHT22;12793;48.014;0.232;2022-09-13T12:07:48;32.40;46.20
24668;DHT22;12793;48.014;0.232;2022-09-13T12:10:29;32.60;45.90
24668;DHT22;12793;48.014;0.232;2022-09-13T12:12:57;32.70;45.50
24668;DHT22;12793;48.014;0.232;2022-09-13T12:15:40;32.80;45.20
24668;DHT22;12793;48.014;0.232;2022-09-13T12:18:22;32.80;45.10
24668;DHT22;12793;48.014;0.232;2022-09-13T12:20:57;32.80;45.10
24668;DHT22;12793;48.014;0.232;2022-09-13T12:23:31;33.00;45.40
24668;DHT22;12793;48.014;0.232;2022-09-13T12:26:12;33.50;45.50
24668;DHT22;12793;48.014;0.232;2022-09-13T12:28:45;34.10;44.50
24668;DHT22;12793;48.014;0.232;2022-09-13T12:31:16;34.20;43.90
24668;DHT22;12793;48.014;0.232;2022-09-13T12:33:44;34.30;43.70
24668;DHT22;12793;48.014;0.232;2022-09-13T12:52:34;37.40;39.80
24668;DHT22;12793;48.014;0.232;2022-09-13T13:01:20;36.60;39.70
24668;DHT22;12793;48.014;0.232;2022-09-13T13:03:53;36.20;40.10
24668;DHT22;12793;48.014;0.232;2022-09-13T13:06:36;35.90;40.40
24668;DHT22;12793;48.014;0.232;2022-09-13T13:09:18;35.60;40.30
24668;DHT22;12793;48.014;0.232;2022-09-13T13:11:47;35.30;41.00
24668;DHT22;12793;48.014;0.232;2022-09-13T13:14:44;35.00;41.10
24668;DHT22;12793;48.014;0.232;2022-09-13T13:23:37;34.60;41.80
24668;DHT22;12793;48.014;0.232;2022-09-13T13:29:25;34.50;42.10
24668;DHT22;12793;48.014;0.232;2022-09-13T13:34:45;34.50;42.20
24668;DHT22;12793;48.014;0.232;2022-09-13T13:39:46;34.40;42.40
24668;DHT22;12793;48.014;0.232;2022-09-13T13:42:32;34.30;42.20
24668;DHT22;12793;48.014;0.232;2022-09-13T13:45:15;34.20;42.30
24668;DHT22;12793;48.014;0.232;2022-09-13T13:48:09;34.10;42.70
24668;DHT22;12793;48.014;0.232;2022-09-13T13:51:18;34.00;42.90
24668;DHT22;12793;48.014;0.232;2022-09-13T13:53:49;34.10;43.10
24668;DHT22;12793;48.014;0.232;2022-09-13T13:56:20;34.00;43.00
24668;DHT22;12793;48.014;0.232;2022-09-13T13:58:54;34.00;43.10
24668;DHT22;12793;48.014;0.232;2022-09-13T14:01:31;33.90;43.00
24668;DHT22;12793;48.014;0.232;2022-09-13T14:06:54;34.30;43.80
24668;DHT22;12793;48.014;0.232;2022-09-13T14:09:36;34.90;43.40
24668;DHT22;12793;48.014;0.232;2022-09-13T14:15:23;35.70;41.80
24668;DHT22;12793;48.014;0.232;2022-09-13T14:20:18;35.50;41.60
24668;DHT22;12793;48.014;0.232;2022-09-13T14:22:45;35.30;41.80
24668;DHT22;12793;48.014;0.232;2022-09-13T14:27:44;34.90;42.30
24668;DHT22;12793;48.014;0.232;2022-09-13T14:32:56;34.60;42.80
24668;DHT22;12793;48.014;0.232;2022-09-13T14:35:37;34.50;42.90
24668;DHT22;12793;48.014;0.232;2022-09-13T14:38:22;34.40;43.00
24668;DHT22;12793;48.014;0.232;2022-09-13T14:40:51;34.20;43.10
24668;DHT22;12793;48.014;0.232;2022-09-13T14:43:22;34.10;43.40
24668;DHT22;12793;48.014;0.232;2022-09-13T14:45:53;33.80;43.60
24668;DHT22;12793;48.014;0.232;2022-09-13T14:48:25;33.70;43.80
24668;DHT22;12793;48.014;0.232;2022-09-13T14:51:16;33.70;44.10
24668;DHT22;12793;48.014;0.232;2022-09-13T14:53:48;33.50;44.20
24668;DHT22;12793;48.014;0.232;2022-09-13T14:56:34;33.40;44.30
24668;DHT22;12793;48.014;0.232;2022-09-13T14:59:04;33.40;44.60
24668;DHT22;12793;48.014;0.232;2022-09-13T15:01:36;33.30;44.70
24668;DHT22;12793;48.014;0.232;2022-09-13T15:04:03;33.20;44.90
24668;DHT22;12793;48.014;0.232;2022-09-13T15:06:36;33.30;45.00
24668;DHT22;12793;48.014;0.232;2022-09-13T15:11:37;33.20;45.10
24668;DHT22;12793;48.014;0.232;2022-09-13T15:14:20;33.10;45.20
24668;DHT22;12793;48.014;0.232;2022-09-13T15:17:13;33.00;45.30
24668;DHT22;12793;48.014;0.232;2022-09-13T15:19:48;32.90;45.50
24668;DHT22;12793;48.014;0.232;2022-09-13T15:22:23;32.80;45.60
24668;DHT22;12793;48.014;0.232;2022-09-13T15:24:54;32.70;45.70
24668;DHT22;12793;48.014;0.232;2022-09-13T15:29:55;32.40;46.10
24668;DHT22;12793;48.014;0.232;2022-09-13T15:34:56;32.00;46.30
24668;DHT22;12793;48.014;0.232;2022-09-13T15:37:33;31.90;46.50
24668;DHT22;12793;48.014;0.232;2022-09-13T15:40:19;31.70;46.70
24668;DHT22;12793;48.014;0.232;2022-09-13T15:42:50;31.60;46.90
24668;DHT22;12793;48.014;0.232;2022-09-13T15:45:18;31.40;47.20
24668;DHT22;12793;48.014;0.232;2022-09-13T15:47:49;31.30;47.40
24668;DHT22;12793;48.014;0.232;2022-09-13T15:50:21;31.20;47.60
24668;DHT22;12793;48.014;0.232;2022-09-13T15:52:48;31.00;47.80
24668;DHT22;12793;48.014;0.232;2022-09-13T15:55:13;30.90;48.10
24668;DHT22;12793;48.014;0.232;2022-09-13T15:57:39;30.80;48.30
24668;DHT22;12793;48.014;0.232;2022-09-13T16:00:17;30.80;48.50
24668;DHT22;12793;48.014;0.232;2022-09-13T16:02:43;30.70;48.60
24668;DHT22;12793;48.014;0.232;2022-09-13T16:05:09;30.70;48.80
24668;DHT22;12793;48.014;0.232;2022-09-13T16:07:36;30.70;48.90
24668;DHT22;12793;48.014;0.232;2022-09-13T16:10:05;30.70;48.90
24668;DHT22;12793;48.014;0.232;2022-09-13T16:12:31;30.70;49.00
24668;DHT22;12793;48.014;0.232;2022-09-13T16:14:57;30.70;49.10
24668;DHT22;12793;48.014;0.232;2022-09-13T16:17:24;30.70;49.20
24668;DHT22;12793;48.014;0.232;2022-09-13T16:19:51;30.60;49.20
24668;DHT22;12793;48.014;0.232;2022-09-13T16:22:17;30.60;49.30
24668;DHT22;12793;48.014;0.232;2022-09-13T16:24:42;30.60;49.30
24668;DHT22;12793;48.014;0.232;2022-09-13T16:27:13;30.60;49.30
24668;DHT22;12793;48.014;0.232;2022-09-13T16:29:39;30.60;49.30
24668;DHT22;12793;48.014;0.232;2022-09-13T16:32:06;30.50;49.30
24668;DHT22;12793;48.014;0.232;2022-09-13T16:34:32;30.50;49.40
24668;DHT22;12793;48.014;0.232;2022-09-13T16:36:57;30.50;49.60
24668;DHT22;12793;48.014;0.232;2022-09-13T16:39:23;30.40;49.60
24668;DHT22;12793;48.014;0.232;2022-09-13T16:41:49;30.40;49.70
24668;DHT22;12793;48.014;0.232;2022-09-13T16:44:14;30.30;49.80
24668;DHT22;12793;48.014;0.232;2022-09-13T16:46:41;30.30;49.80
24668;DHT22;12793;48.014;0.232;2022-09-13T16:49:06;30.30;50.00
24668;DHT22;12793;48.014;0.232;2022-09-13T16:51:32;30.30;50.20
24668;DHT22;12793;48.014;0.232;2022-09-13T16:53:58;30.20;50.40
24668;DHT22;12793;48.014;0.232;2022-09-13T16:56:25;30.20;50.60
24668;DHT22;12793;48.014;0.232;2022-09-13T16:58:52;30.20;51.00
24668;DHT22;12793;48.014;0.232;2022-09-13T17:01:23;30.20;51.30
24668;DHT22;12793;48.014;0.232;2022-09-13T17:03:50;30.30;51.40
24668;DHT22;12793;48.014;0.232;2022-09-13T17:06:18;30.30;51.50
24668;DHT22;12793;48.014;0.232;2022-09-13T17:08:55;30.30;51.40
24668;DHT22;12793;48.014;0.232;2022-09-13T17:11:23;30.30;51.00
24668;DHT22;12793;48.014;0.232;2022-09-13T17:13:49;30.40;50.80
24668;DHT22;12793;48.014;0.232;2022-09-13T17:18:45;30.50;50.70
24668;DHT22;12793;48.014;0.232;2022-09-13T17:21:10;30.50;50.70
24668;DHT22;12793;48.014;0.232;2022-09-13T17:23:36;30.60;50.60
24668;DHT22;12793;48.014;0.232;2022-09-13T17:26:02;30.60;50.50
24668;DHT22;12793;48.014;0.232;2022-09-13T17:28:27;30.70;50.50
24668;DHT22;12793;48.014;0.232;2022-09-13T17:30:53;30.60;50.30
24668;DHT22;12793;48.014;0.232;2022-09-13T17:33:19;30.60;50.40
24668;DHT22;12793;48.014;0.232;2022-09-13T17:35:45;30.40;50.40
24668;DHT22;12793;48.014;0.232;2022-09-13T17:38:10;30.30;50.40
24668;DHT22;12793;48.014;0.232;2022-09-13T17:40:36;30.20;50.50
24668;DHT22;12793;48.014;0.232;2022-09-13T17:43:02;30.10;50.60
24668;DHT22;12793;48.014;0.232;2022-09-13T17:45:28;30.10;50.60
24668;DHT22;12793;48.014;0.232;2022-09-13T17:47:54;30.00;50.60
24668;DHT22;12793;48.014;0.232;2022-09-13T17:50:23;29.90;50.60
24668;DHT22;12793;48.014;0.232;2022-09-13T17:52:49;29.80;50.60
24668;DHT22;12793;48.014;0.232;2022-09-13T17:55:16;29.70;50.70
24668;DHT22;12793;48.014;0.232;2022-09-13T17:57:42;29.50;50.70
24668;DHT22;12793;48.014;0.232;2022-09-13T18:00:08;29.40;50.90
24668;DHT22;12793;48.014;0.232;2022-09-13T18:02:37;29.30;51.10
24668;DHT22;12793;48.014;0.232;2022-09-13T18:05:03;29.20;51.30
24668;DHT22;12793;48.014;0.232;2022-09-13T18:07:29;29.10;51.50
24668;DHT22;12793;48.014;0.232;2022-09-13T18:09:55;28.90;51.60
24668;DHT22;12793;48.014;0.232;2022-09-13T18:12:20;28.90;52.00
24668;DHT22;12793;48.014;0.232;2022-09-13T18:14:46;28.70;52.20
24668;DHT22;12793;48.014;0.232;2022-09-13T18:17:12;28.60;52.30
24668;DHT22;12793;48.014;0.232;2022-09-13T18:19:39;28.50;52.60
24668;DHT22;12793;48.014;0.232;2022-09-13T18:22:07;28.40;52.70
24668;DHT22;12793;48.014;0.232;2022-09-13T18:24:33;28.40;52.90
24668;DHT22;12793;48.014;0.232;2022-09-13T18:26:59;28.30;53.00
24668;DHT22;12793;48.014;0.232;2022-09-13T18:29:25;28.20;53.00
24668;DHT22;12793;48.014;0.232;2022-09-13T18:31:53;28.10;53.10
24668;DHT22;12793;48.014;0.232;2022-09-13T18:34:19;28.10;53.30
24668;DHT22;12793;48.014;0.232;2022-09-13T18:36:45;28.00;53.40
24668;DHT22;12793;48.014;0.232;2022-09-13T18:39:19;28.00;53.50
24668;DHT22;12793;48.014;0.232;2022-09-13T18:41:45;27.90;53.60
24668;DHT22;12793;48.014;0.232;2022-09-13T18:44:12;27.80;53.70
24668;DHT22;12793;48.014;0.232;2022-09-13T18:46:38;27.80;53.80
24668;DHT22;12793;48.014;0.232;2022-09-13T18:49:05;27.70;53.90
24668;DHT22;12793;48.014;0.232;2022-09-13T18:51:37;27.60;54.00
24668;DHT22;12793;48.014;0.232;2022-09-13T18:54:03;27.50;54.10
24668;DHT22;12793;48.014;0.232;2022-09-13T18:56:31;27.40;54.30
24668;DHT22;12793;48.014;0.232;2022-09-13T18:58:59;27.30;54.40
24668;DHT22;12793;48.014;0.232;2022-09-13T19:01:31;27.30;54.60
24668;DHT22;12793;48.014;0.232;2022-09-13T19:04:01;27.20;54.70
24668;DHT22;12793;48.014;0.232;2022-09-13T19:06:29;27.10;54.90
24668;DHT22;12793;48.014;0.232;2022-09-13T19:08:56;27.10;55.00
24668;DHT22;12793;48.014;0.232;2022-09-13T19:11:24;27.00;55.10
24668;DHT22;12793;48.014;0.232;2022-09-13T19:13:50;27.00;55.20
24668;DHT22;12793;48.014;0.232;2022-09-13T19:16:18;26.90;55.30
24668;DHT22;12793;48.014;0.232;2022-09-13T19:18:46;26.90;55.40
24668;DHT22;12793;48.014;0.232;2022-09-13T19:21:21;26.80;55.40
24668;DHT22;12793;48.014;0.232;2022-09-13T19:23:48;26.90;55.50